sensor_id;sensor_type;location;lat;lon;timestamp;pressure;altitude;pressure_sealevel;temperature;humidity
56689;BME280;42565;53.342;-1.534;2023-02-20T00:00:18;99502.83;;;8.86;74.69
56689;BME280;42565;53.342;-1.534;2023-02-20T00:02:47;99498.34;;;9.42;74.43
56689;BME280;42565;53.342;-1.534;2023-02-20T00:05:15;99501.85;;;9.57;74.51
56689;BME280;42565;53.342;-1.534;2023-02-20T00:07:42;99496.64;;;9.17;75.14
56689;BME280;42565;53.342;-1.534;2023-02-20T00:10:10;99491.98;;;9.32;74.39
56689;BME280;42565;53.342;-1.534;2023-02-20T00:12:38;99482.69;;;9.63;72.90
56689;BME280;42565;53.342;-1.534;2023-02-20T00:15:06;99485.73;;;10.33;72.34
56689;BME280;42565;53.342;-1.534;2023-02-20T00:17:33;99476.14;;;10.19;73.03
56689;BME280;42565;53.342;-1.534;2023-02-20T00:20:01;99482.46;;;9.26;75.97
56689;BME280;42565;53.342;-1.534;2023-02-20T00:22:28;99483.13;;;8.20;80.48
56689;BME280;42565;53.342;-1.534;2023-02-20T00:24:56;99480.27;;;8.99;77.63
56689;BME280;42565;53.342;-1.534;2023-02-20T00:27:23;99476.58;;;8.81;79.76
56689;BME280;42565;53.342;-1.534;2023-02-20T00:29:50;99471.27;;;8.51;79.31
56689;BME280;42565;53.342;-1.534;2023-02-20T00:32:18;99460.41;;;8.98;79.41
56689;BME280;42565;53.342;-1.534;2023-02-20T00:34:44;99452.58;;;8.58;80.71
56689;BME280;42565;53.342;-1.534;2023-02-20T00:37:12;99451.50;;;8.04;82.39
56689;BME280;42565;53.342;-1.534;2023-02-20T00:39:38;99439.96;;;8.30;81.90
56689;BME280;42565;53.342;-1.534;2023-02-20T00:42:05;99449.29;;;8.07;83.20
56689;BME280;42565;53.342;-1.534;2023-02-20T00:44:32;99432.27;;;7.36;86.47
56689;BME280;42565;53.342;-1.534;2023-02-20T00:46:59;99428.44;;;7.57;85.93
56689;BME280;42565;53.342;-1.534;2023-02-20T00:49:26;99425.96;;;7.55;86.45
56689;BME280;42565;53.342;-1.534;2023-02-20T00:51:53;99421.22;;;7.29;88.98
56689;BME280;42565;53.342;-1.534;2023-02-20T00:54:20;99421.44;;;7.79;86.00
56689;BME280;42565;53.342;-1.534;2023-02-20T00:56:47;99429.42;;;8.14;83.46
56689;BME280;42565;53.342;-1.534;2023-02-20T00:59:14;99423.72;;;8.21;83.82
56689;BME280;42565;53.342;-1.534;2023-02-20T01:01:42;99420.35;;;7.89;85.27
56689;BME280;42565;53.342;-1.534;2023-02-20T01:04:10;99425.18;;;7.99;84.72
56689;BME280;42565;53.342;-1.534;2023-02-20T01:06:37;99416.87;;;7.93;84.89
56689;BME280;42565;53.342;-1.534;2023-02-20T01:09:04;99415.54;;;8.01;83.85
56689;BME280;42565;53.342;-1.534;2023-02-20T01:11:31;99416.95;;;8.22;83.52
56689;BME280;42565;53.342;-1.534;2023-02-20T01:13:58;99405.64;;;8.32;82.38
56689;BME280;42565;53.342;-1.534;2023-02-20T01:16:25;99401.66;;;8.45;82.46
56689;BME280;42565;53.342;-1.534;2023-02-20T01:18:52;99403.17;;;8.49;82.18
56689;BME280;42565;53.342;-1.534;2023-02-20T01:21:21;99395.07;;;8.33;82.01
56689;BME280;42565;53.342;-1.534;2023-02-20T01:23:47;99402.00;;;8.56;82.64
56689;BME280;42565;53.342;-1.534;2023-02-20T01:26:14;99390.90;;;7.97;84.22
56689;BME280;42565;53.342;-1.534;2023-02-20T01:28:43;99380.44;;;8.80;81.90
56689;BME280;42565;53.342;-1.534;2023-02-20T01:31:11;99390.95;;;8.68;81.69
56689;BME280;42565;53.342;-1.534;2023-02-20T01:33:40;99374.52;;;7.58;85.64
56689;BME280;42565;53.342;-1.534;2023-02-20T01:36:08;99372.44;;;7.80;85.01
56689;BME280;42565;53.342;-1.534;2023-02-20T01:38:35;99374.09;;;8.21;83.87
56689;BME280;42565;53.342;-1.534;2023-02-20T01:41:02;99367.93;;;8.23;83.67
56689;BME280;42565;53.342;-1.534;2023-02-20T01:43:31;99370.66;;;8.50;82.67
56689;BME280;42565;53.342;-1.534;2023-02-20T01:46:45;99374.48;;;8.18;83.63
56689;BME280;42565;53.342;-1.534;2023-02-20T01:49:18;99363.98;;;8.81;80.49
56689;BME280;42565;53.342;-1.534;2023-02-20T01:51:51;99365.37;;;8.75;80.72
56689;BME280;42565;53.342;-1.534;2023-02-20T01:54:21;99363.37;;;9.15;79.60
56689;BME280;42565;53.342;-1.534;2023-02-20T01:56:50;99349.65;;;9.01;80.11
56689;BME280;42565;53.342;-1.534;2023-02-20T01:59:20;99353.15;;;9.09;79.59
56689;BME280;42565;53.342;-1.534;2023-02-20T02:01:47;99350.48;;;8.28;81.38
56689;BME280;42565;53.342;-1.534;2023-02-20T02:04:16;99349.94;;;8.97;80.61
56689;BME280;42565;53.342;-1.534;2023-02-20T02:06:48;99345.33;;;8.02;83.69
56689;BME280;42565;53.342;-1.534;2023-02-20T02:09:20;99344.22;;;8.16;83.23
56689;BME280;42565;53.342;-1.534;2023-02-20T02:11:50;99346.10;;;8.11;83.65
56689;BME280;42565;53.342;-1.534;2023-02-20T02:14:17;99332.36;;;8.20;83.38
56689;BME280;42565;53.342;-1.534;2023-02-20T02:16:55;99326.85;;;8.83;80.88
56689;BME280;42565;53.342;-1.534;2023-02-20T02:19:48;99317.00;;;8.82;79.70
56689;BME280;42565;53.342;-1.534;2023-02-20T02:22:41;99311.35;;;8.76;79.72
56689;BME280;42565;53.342;-1.534;2023-02-20T02:25:24;99297.67;;;8.37;81.88
56689;BME280;42565;53.342;-1.534;2023-02-20T02:29:41;99303.03;;;8.35;81.85
56689;BME280;42565;53.342;-1.534;2023-02-20T02:32:30;99293.36;;;7.69;83.98
56689;BME280;42565;53.342;-1.534;2023-02-20T02:35:16;99280.04;;;8.14;82.69
56689;BME280;42565;53.342;-1.534;2023-02-20T02:37:54;99282.70;;;8.26;82.67
56689;BME280;42565;53.342;-1.534;2023-02-20T02:40:30;99277.08;;;8.30;82.61
56689;BME280;42565;53.342;-1.534;2023-02-20T02:43:08;99271.06;;;7.97;82.31
56689;BME280;42565;53.342;-1.534;2023-02-20T02:45:42;99264.21;;;7.72;85.09
56689;BME280;42565;53.342;-1.534;2023-02-20T02:48:16;99256.46;;;7.65;85.04
56689;BME280;42565;53.342;-1.534;2023-02-20T02:50:47;99256.09;;;7.52;85.36
56689;BME280;42565;53.342;-1.534;2023-02-20T02:53:15;99254.95;;;7.28;86.21
56689;BME280;42565;53.342;-1.534;2023-02-20T02:55:42;99250.96;;;7.72;84.38
56689;BME280;42565;53.342;-1.534;2023-02-20T02:58:10;99250.87;;;7.76;84.71
56689;BME280;42565;53.342;-1.534;2023-02-20T03:00:44;99240.46;;;7.70;84.86
56689;BME280;42565;53.342;-1.534;2023-02-20T03:03:15;99233.31;;;7.71;85.49
56689;BME280;42565;53.342;-1.534;2023-02-20T03:05:48;99232.11;;;7.96;85.30
56689;BME280;42565;53.342;-1.534;2023-02-20T03:08:25;99233.52;;;7.80;84.84
56689;BME280;42565;53.342;-1.534;2023-02-20T03:10:54;99228.29;;;7.41;85.91
56689;BME280;42565;53.342;-1.534;2023-02-20T03:13:22;99234.74;;;7.18;87.01
56689;BME280;42565;53.342;-1.534;2023-02-20T03:15:52;99231.49;;;7.63;86.79
56689;BME280;42565;53.342;-1.534;2023-02-20T03:18:30;99232.64;;;7.28;87.92
56689;BME280;42565;53.342;-1.534;2023-02-20T03:21:04;99229.77;;;7.40;87.60
56689;BME280;42565;53.342;-1.534;2023-02-20T03:23:37;99223.86;;;7.15;88.50
56689;BME280;42565;53.342;-1.534;2023-02-20T03:26:08;99224.77;;;7.28;88.65
56689;BME280;42565;53.342;-1.534;2023-02-20T03:28:38;99227.68;;;6.96;88.36
56689;BME280;42565;53.342;-1.534;2023-02-20T03:31:09;99221.83;;;7.18;88.54
56689;BME280;42565;53.342;-1.534;2023-02-20T03:33:42;99217.21;;;7.09;87.61
56689;BME280;42565;53.342;-1.534;2023-02-20T03:36:13;99224.57;;;7.53;87.64
56689;BME280;42565;53.342;-1.534;2023-02-20T03:38:46;99216.26;;;7.72;87.54
56689;BME280;42565;53.342;-1.534;2023-02-20T03:41:16;99205.17;;;7.23;88.89
56689;BME280;42565;53.342;-1.534;2023-02-20T03:43:46;99211.29;;;7.66;86.04
56689;BME280;42565;53.342;-1.534;2023-02-20T03:46:18;99197.58;;;7.68;87.47
56689;BME280;42565;53.342;-1.534;2023-02-20T03:48:50;99193.14;;;7.12;88.78
56689;BME280;42565;53.342;-1.534;2023-02-20T03:51:20;99193.91;;;7.49;88.48
56689;BME280;42565;53.342;-1.534;2023-02-20T03:53:48;99191.22;;;7.37;88.79
56689;BME280;42565;53.342;-1.534;2023-02-20T03:56:20;99183.35;;;7.00;90.19
56689;BME280;42565;53.342;-1.534;2023-02-20T03:58:54;99183.76;;;7.65;88.32
56689;BME280;42565;53.342;-1.534;2023-02-20T04:01:26;99183.69;;;7.80;85.29
56689;BME280;42565;53.342;-1.534;2023-02-20T04:03:55;99171.01;;;7.58;85.64
56689;BME280;42565;53.342;-1.534;2023-02-20T04:06:28;99180.61;;;7.97;84.33
56689;BME280;42565;53.342;-1.534;2023-02-20T04:09:01;99171.22;;;7.41;87.05
56689;BME280;42565;53.342;-1.534;2023-02-20T04:11:32;99188.32;;;7.24;86.70
56689;BME280;42565;53.342;-1.534;2023-02-20T04:14:01;99171.57;;;7.33;88.05
56689;BME280;42565;53.342;-1.534;2023-02-20T04:16:31;99166.74;;;7.07;87.55
56689;BME280;42565;53.342;-1.534;2023-02-20T04:19:00;99160.29;;;7.33;86.30
56689;BME280;42565;53.342;-1.534;2023-02-20T04:21:33;99154.03;;;7.54;86.79
56689;BME280;42565;53.342;-1.534;2023-02-20T04:24:05;99157.82;;;7.51;87.72
56689;BME280;42565;53.342;-1.534;2023-02-20T04:26:34;99154.31;;;7.56;85.10
56689;BME280;42565;53.342;-1.534;2023-02-20T04:29:02;99159.61;;;7.41;87.32
56689;BME280;42565;53.342;-1.534;2023-02-20T04:31:31;99156.62;;;7.19;88.67
56689;BME280;42565;53.342;-1.534;2023-02-20T04:33:58;99142.42;;;7.61;85.45
56689;BME280;42565;53.342;-1.534;2023-02-20T04:36:26;99148.22;;;7.34;86.06
56689;BME280;42565;53.342;-1.534;2023-02-20T04:38:54;99141.85;;;7.93;83.85
56689;BME280;42565;53.342;-1.534;2023-02-20T04:41:20;99142.81;;;7.80;85.84
56689;BME280;42565;53.342;-1.534;2023-02-20T04:43:48;99143.15;;;7.34;85.94
56689;BME280;42565;53.342;-1.534;2023-02-20T04:46:15;99141.55;;;7.01;87.25
56689;BME280;42565;53.342;-1.534;2023-02-20T04:48:43;99148.21;;;7.43;86.54
56689;BME280;42565;53.342;-1.534;2023-02-20T04:51:11;99151.10;;;7.87;85.47
56689;BME280;42565;53.342;-1.534;2023-02-20T04:53:37;99152.77;;;8.02;84.94
56689;BME280;42565;53.342;-1.534;2023-02-20T04:56:04;99159.84;;;7.71;85.23
56689;BME280;42565;53.342;-1.534;2023-02-20T04:58:32;99163.27;;;7.57;85.66
56689;BME280;42565;53.342;-1.534;2023-02-20T05:00:59;99156.28;;;7.45;86.00
56689;BME280;42565;53.342;-1.534;2023-02-20T05:03:26;99171.53;;;7.56;86.74
56689;BME280;42565;53.342;-1.534;2023-02-20T05:05:53;99176.08;;;7.55;87.35
56689;BME280;42565;53.342;-1.534;2023-02-20T05:08:20;99186.88;;;7.94;84.77
56689;BME280;42565;53.342;-1.534;2023-02-20T05:10:47;99168.49;;;7.59;85.49
56689;BME280;42565;53.342;-1.534;2023-02-20T05:13:13;99176.03;;;7.26;87.89
56689;BME280;42565;53.342;-1.534;2023-02-20T05:15:40;99180.95;;;7.33;87.01
56689;BME280;42565;53.342;-1.534;2023-02-20T05:18:07;99178.15;;;7.51;87.31
56689;BME280;42565;53.342;-1.534;2023-02-20T05:20:33;99183.70;;;7.86;85.14
56689;BME280;42565;53.342;-1.534;2023-02-20T05:23:00;99173.58;;;7.57;85.30
56689;BME280;42565;53.342;-1.534;2023-02-20T05:25:27;99175.19;;;7.40;86.05
56689;BME280;42565;53.342;-1.534;2023-02-20T05:27:54;99192.29;;;7.60;85.68
56689;BME280;42565;53.342;-1.534;2023-02-20T05:30:21;99191.27;;;7.74;85.41
56689;BME280;42565;53.342;-1.534;2023-02-20T05:32:49;99191.91;;;8.23;83.38
56689;BME280;42565;53.342;-1.534;2023-02-20T05:35:15;99194.94;;;7.50;85.75
56689;BME280;42565;53.342;-1.534;2023-02-20T05:37:42;99204.91;;;7.81;84.87
56689;BME280;42565;53.342;-1.534;2023-02-20T05:40:10;99214.99;;;7.79;84.50
56689;BME280;42565;53.342;-1.534;2023-02-20T05:42:37;99205.60;;;7.76;85.01
56689;BME280;42565;53.342;-1.534;2023-02-20T05:45:05;99208.79;;;7.51;86.01
56689;BME280;42565;53.342;-1.534;2023-02-20T05:47:32;99210.19;;;7.50;85.63
56689;BME280;42565;53.342;-1.534;2023-02-20T05:49:59;99204.45;;;7.89;84.66
56689;BME280;42565;53.342;-1.534;2023-02-20T05:52:26;99215.52;;;7.71;85.42
56689;BME280;42565;53.342;-1.534;2023-02-20T05:54:53;99202.25;;;8.44;82.41
56689;BME280;42565;53.342;-1.534;2023-02-20T05:57:20;99205.91;;;8.41;82.80
56689;BME280;42565;53.342;-1.534;2023-02-20T05:59:47;99204.39;;;8.01;83.10
56689;BME280;42565;53.342;-1.534;2023-02-20T06:02:14;99196.16;;;8.24;84.03
56689;BME280;42565;53.342;-1.534;2023-02-20T06:04:42;99203.63;;;8.31;82.66
56689;BME280;42565;53.342;-1.534;2023-02-20T06:07:08;99191.97;;;8.11;83.44
56689;BME280;42565;53.342;-1.534;2023-02-20T06:09:35;99185.38;;;8.06;83.92
56689;BME280;42565;53.342;-1.534;2023-02-20T06:12:02;99190.41;;;7.92;84.58
56689;BME280;42565;53.342;-1.534;2023-02-20T06:14:29;99199.24;;;7.86;84.88
56689;BME280;42565;53.342;-1.534;2023-02-20T06:16:56;99198.78;;;7.79;84.89
56689;BME280;42565;53.342;-1.534;2023-02-20T06:19:24;99207.30;;;7.99;84.31
56689;BME280;42565;53.342;-1.534;2023-02-20T06:21:52;99205.22;;;7.84;85.02
56689;BME280;42565;53.342;-1.534;2023-02-20T06:24:19;99207.02;;;8.21;82.87
56689;BME280;42565;53.342;-1.534;2023-02-20T06:26:46;99183.20;;;8.28;82.95
56689;BME280;42565;53.342;-1.534;2023-02-20T06:29:16;99191.21;;;8.10;81.99
56689;BME280;42565;53.342;-1.534;2023-02-20T06:31:43;99205.90;;;8.12;83.69
56689;BME280;42565;53.342;-1.534;2023-02-20T06:34:11;99209.26;;;7.99;84.46
56689;BME280;42565;53.342;-1.534;2023-02-20T06:36:40;99209.41;;;8.20;83.75
56689;BME280;42565;53.342;-1.534;2023-02-20T06:39:09;99208.32;;;8.42;82.84
56689;BME280;42565;53.342;-1.534;2023-02-20T06:41:37;99218.86;;;8.15;84.05
56689;BME280;42565;53.342;-1.534;2023-02-20T06:44:04;99219.05;;;8.27;83.82
56689;BME280;42565;53.342;-1.534;2023-02-20T06:46:31;99211.82;;;7.82;85.02
56689;BME280;42565;53.342;-1.534;2023-02-20T06:48:59;99225.73;;;8.31;83.75
56689;BME280;42565;53.342;-1.534;2023-02-20T06:51:28;99228.96;;;7.51;86.26
56689;BME280;42565;53.342;-1.534;2023-02-20T06:53:56;99236.56;;;8.30;84.22
56689;BME280;42565;53.342;-1.534;2023-02-20T06:56:25;99236.73;;;7.53;85.42
56689;BME280;42565;53.342;-1.534;2023-02-20T06:58:53;99231.28;;;7.71;85.63
56689;BME280;42565;53.342;-1.534;2023-02-20T07:01:23;99231.80;;;7.95;87.02
56689;BME280;42565;53.342;-1.534;2023-02-20T07:03:51;99233.81;;;7.79;86.19
56689;BME280;42565;53.342;-1.534;2023-02-20T07:06:19;99232.74;;;7.62;86.38
56689;BME280;42565;53.342;-1.534;2023-02-20T07:08:46;99241.09;;;7.52;86.53
56689;BME280;42565;53.342;-1.534;2023-02-20T07:11:15;99233.88;;;7.76;85.99
56689;BME280;42565;53.342;-1.534;2023-02-20T07:13:43;99234.18;;;8.01;85.13
56689;BME280;42565;53.342;-1.534;2023-02-20T07:16:10;99238.80;;;8.17;84.48
56689;BME280;42565;53.342;-1.534;2023-02-20T07:18:37;99237.15;;;8.47;82.96
56689;BME280;42565;53.342;-1.534;2023-02-20T07:21:04;99248.86;;;8.25;84.00
56689;BME280;42565;53.342;-1.534;2023-02-20T07:23:31;99245.37;;;8.12;84.87
56689;BME280;42565;53.342;-1.534;2023-02-20T07:25:58;99249.27;;;8.79;82.46
56689;BME280;42565;53.342;-1.534;2023-02-20T07:28:25;99240.22;;;8.95;81.48
56689;BME280;42565;53.342;-1.534;2023-02-20T07:30:52;99238.54;;;8.86;80.03
56689;BME280;42565;53.342;-1.534;2023-02-20T07:33:19;99248.94;;;8.56;82.78
56689;BME280;42565;53.342;-1.534;2023-02-20T07:35:47;99252.73;;;8.56;82.81
56689;BME280;42565;53.342;-1.534;2023-02-20T07:38:14;99249.50;;;8.40;83.62
56689;BME280;42565;53.342;-1.534;2023-02-20T07:40:41;99247.64;;;7.93;85.24
56689;BME280;42565;53.342;-1.534;2023-02-20T07:43:07;99235.72;;;7.71;86.67
56689;BME280;42565;53.342;-1.534;2023-02-20T07:45:35;99256.12;;;8.06;86.22
56689;BME280;42565;53.342;-1.534;2023-02-20T07:48:03;99263.94;;;8.49;84.07
56689;BME280;42565;53.342;-1.534;2023-02-20T07:50:30;99264.01;;;8.69;82.68
56689;BME280;42565;53.342;-1.534;2023-02-20T07:52:58;99264.59;;;8.93;81.99
56689;BME280;42565;53.342;-1.534;2023-02-20T07:55:24;99269.96;;;8.58;82.78
56689;BME280;42565;53.342;-1.534;2023-02-20T07:57:52;99270.00;;;8.38;83.20
56689;BME280;42565;53.342;-1.534;2023-02-20T08:00:20;99280.48;;;8.57;83.97
56689;BME280;42565;53.342;-1.534;2023-02-20T08:02:47;99277.76;;;8.13;84.16
56689;BME280;42565;53.342;-1.534;2023-02-20T08:05:14;99286.93;;;8.23;85.18
56689;BME280;42565;53.342;-1.534;2023-02-20T08:07:43;99285.87;;;8.00;85.87
56689;BME280;42565;53.342;-1.534;2023-02-20T08:10:11;99285.27;;;8.27;84.83
56689;BME280;42565;53.342;-1.534;2023-02-20T08:12:38;99287.44;;;8.76;83.16
56689;BME280;42565;53.342;-1.534;2023-02-20T08:15:06;99285.05;;;8.92;82.57
56689;BME280;42565;53.342;-1.534;2023-02-20T08:17:33;99284.73;;;8.96;81.80
56689;BME280;42565;53.342;-1.534;2023-02-20T08:20:00;99295.40;;;9.33;80.74
56689;BME280;42565;53.342;-1.534;2023-02-20T08:22:27;99292.50;;;8.49;84.30
56689;BME280;42565;53.342;-1.534;2023-02-20T08:24:54;99294.62;;;8.43;84.35
56689;BME280;42565;53.342;-1.534;2023-02-20T08:27:22;99297.56;;;9.24;81.41
56689;BME280;42565;53.342;-1.534;2023-02-20T08:29:48;99300.82;;;8.71;82.56
56689;BME280;42565;53.342;-1.534;2023-02-20T08:32:16;99308.50;;;9.36;80.40
56689;BME280;42565;53.342;-1.534;2023-02-20T08:34:44;99311.44;;;9.10;81.28
56689;BME280;42565;53.342;-1.534;2023-02-20T08:37:11;99315.73;;;9.41;79.46
56689;BME280;42565;53.342;-1.534;2023-02-20T08:39:38;99323.22;;;9.55;79.72
56689;BME280;42565;53.342;-1.534;2023-02-20T08:42:06;99328.02;;;9.49;80.03
56689;BME280;42565;53.342;-1.534;2023-02-20T08:44:34;99320.51;;;9.60;79.30
56689;BME280;42565;53.342;-1.534;2023-02-20T08:47:00;99312.69;;;9.08;81.61
56689;BME280;42565;53.342;-1.534;2023-02-20T08:49:27;99317.68;;;9.08;82.41
56689;BME280;42565;53.342;-1.534;2023-02-20T08:51:55;99319.13;;;9.11;81.99
56689;BME280;42565;53.342;-1.534;2023-02-20T08:54:22;99328.09;;;9.59;80.55
56689;BME280;42565;53.342;-1.534;2023-02-20T08:56:49;99327.65;;;8.68;82.14
56689;BME280;42565;53.342;-1.534;2023-02-20T08:59:15;99329.17;;;9.12;82.25
56689;BME280;42565;53.342;-1.534;2023-02-20T09:01:43;99337.88;;;9.27;80.41
56689;BME280;42565;53.342;-1.534;2023-02-20T09:04:10;99336.54;;;10.16;77.82
56689;BME280;42565;53.342;-1.534;2023-02-20T09:06:36;99342.87;;;10.08;78.92
56689;BME280;42565;53.342;-1.534;2023-02-20T09:09:04;99335.75;;;9.62;80.18
56689;BME280;42565;53.342;-1.534;2023-02-20T09:11:31;99321.77;;;9.13;80.58
56689;BME280;42565;53.342;-1.534;2023-02-20T09:13:58;99326.00;;;8.71;84.70
56689;BME280;42565;53.342;-1.534;2023-02-20T09:16:26;99325.31;;;9.03;83.15
56689;BME280;42565;53.342;-1.534;2023-02-20T09:18:53;99329.88;;;8.73;84.84
56689;BME280;42565;53.342;-1.534;2023-02-20T09:21:20;99328.26;;;9.76;81.90
56689;BME280;42565;53.342;-1.534;2023-02-20T09:23:47;99331.51;;;9.91;80.40
56689;BME280;42565;53.342;-1.534;2023-02-20T09:26:14;99343.05;;;9.17;81.89
56689;BME280;42565;53.342;-1.534;2023-02-20T09:28:42;99350.69;;;9.24;83.86
56689;BME280;42565;53.342;-1.534;2023-02-20T09:31:09;99329.26;;;9.05;83.91
56689;BME280;42565;53.342;-1.534;2023-02-20T09:33:37;99329.86;;;9.51;83.80
56689;BME280;42565;53.342;-1.534;2023-02-20T09:36:05;99324.65;;;9.30;84.76
56689;BME280;42565;53.342;-1.534;2023-02-20T09:38:33;99326.88;;;8.52;85.68
56689;BME280;42565;53.342;-1.534;2023-02-20T09:41:00;99329.02;;;9.62;83.32
56689;BME280;42565;53.342;-1.534;2023-02-20T09:43:37;99327.34;;;9.09;85.00
56689;BME280;42565;53.342;-1.534;2023-02-20T09:46:09;99331.39;;;10.01;82.99
56689;BME280;42565;53.342;-1.534;2023-02-20T09:48:47;99334.02;;;9.91;81.89
56689;BME280;42565;53.342;-1.534;2023-02-20T09:51:20;99340.93;;;9.69;83.27
56689;BME280;42565;53.342;-1.534;2023-02-20T09:53:53;99346.11;;;9.61;85.19
56689;BME280;42565;53.342;-1.534;2023-02-20T09:56:25;99336.36;;;9.27;87.33
56689;BME280;42565;53.342;-1.534;2023-02-20T09:58:57;99334.01;;;8.93;86.95
56689;BME280;42565;53.342;-1.534;2023-02-20T10:01:28;99339.17;;;9.39;84.46
56689;BME280;42565;53.342;-1.534;2023-02-20T10:03:59;99345.48;;;10.12;82.70
56689;BME280;42565;53.342;-1.534;2023-02-20T10:06:30;99338.38;;;10.05;80.87
56689;BME280;42565;53.342;-1.534;2023-02-20T10:08:58;99340.79;;;10.76;80.59
56689;BME280;42565;53.342;-1.534;2023-02-20T10:11:38;99344.95;;;9.75;83.03
56689;BME280;42565;53.342;-1.534;2023-02-20T10:14:25;99341.74;;;9.78;82.89
56689;BME280;42565;53.342;-1.534;2023-02-20T10:17:02;99342.73;;;10.22;81.07
56689;BME280;42565;53.342;-1.534;2023-02-20T10:19:39;99351.58;;;10.07;80.46
56689;BME280;42565;53.342;-1.534;2023-02-20T10:22:13;99366.67;;;10.07;81.81
56689;BME280;42565;53.342;-1.534;2023-02-20T10:24:54;99367.87;;;9.67;82.41
56689;BME280;42565;53.342;-1.534;2023-02-20T10:27:32;99374.67;;;9.83;83.00
56689;BME280;42565;53.342;-1.534;2023-02-20T10:30:04;99371.28;;;9.60;84.21
56689;BME280;42565;53.342;-1.534;2023-02-20T10:32:37;99376.13;;;9.39;86.00
56689;BME280;42565;53.342;-1.534;2023-02-20T10:35:08;99383.43;;;10.09;85.22
56689;BME280;42565;53.342;-1.534;2023-02-20T10:37:41;99381.07;;;10.22;84.38
56689;BME280;42565;53.342;-1.534;2023-02-20T10:40:17;99370.20;;;9.52;83.70
56689;BME280;42565;53.342;-1.534;2023-02-20T10:42:50;99372.23;;;10.37;82.91
56689;BME280;42565;53.342;-1.534;2023-02-20T10:45:26;99373.32;;;9.94;83.67
56689;BME280;42565;53.342;-1.534;2023-02-20T10:48:01;99385.26;;;9.90;84.96
56689;BME280;42565;53.342;-1.534;2023-02-20T10:50:34;99377.57;;;9.58;84.85
56689;BME280;42565;53.342;-1.534;2023-02-20T10:53:11;99360.57;;;9.86;84.18
56689;BME280;42565;53.342;-1.534;2023-02-20T10:55:45;99364.36;;;10.14;82.38
56689;BME280;42565;53.342;-1.534;2023-02-20T10:58:16;99360.64;;;9.80;83.34
56689;BME280;42565;53.342;-1.534;2023-02-20T11:00:50;99355.56;;;9.93;82.80
56689;BME280;42565;53.342;-1.534;2023-02-20T11:03:23;99363.61;;;9.58;86.23
56689;BME280;42565;53.342;-1.534;2023-02-20T11:05:53;99364.42;;;9.75;84.35
56689;BME280;42565;53.342;-1.534;2023-02-20T11:08:21;99367.14;;;9.60;86.64
56689;BME280;42565;53.342;-1.534;2023-02-20T11:10:51;99363.50;;;9.70;84.72
56689;BME280;42565;53.342;-1.534;2023-02-20T11:13:22;99367.70;;;9.90;82.69
56689;BME280;42565;53.342;-1.534;2023-02-20T11:15:53;99362.88;;;9.94;82.69
56689;BME280;42565;53.342;-1.534;2023-02-20T11:18:24;99364.47;;;10.51;81.45
56689;BME280;42565;53.342;-1.534;2023-02-20T11:20:52;99367.01;;;10.25;81.82
56689;BME280;42565;53.342;-1.534;2023-02-20T11:23:38;99367.30;;;9.75;83.00
56689;BME280;42565;53.342;-1.534;2023-02-20T11:26:38;99366.52;;;9.73;82.71
56689;BME280;42565;53.342;-1.534;2023-02-20T11:29:11;99355.87;;;10.03;82.03
56689;BME280;42565;53.342;-1.534;2023-02-20T11:31:40;99360.34;;;9.88;82.54
56689;BME280;42565;53.342;-1.534;2023-02-20T11:34:16;99353.64;;;9.72;83.12
56689;BME280;42565;53.342;-1.534;2023-02-20T11:36:46;99355.44;;;9.74;83.78
56689;BME280;42565;53.342;-1.534;2023-02-20T11:39:20;99356.59;;;9.88;84.61
56689;BME280;42565;53.342;-1.534;2023-02-20T11:41:49;99361.38;;;10.53;82.92
56689;BME280;42565;53.342;-1.534;2023-02-20T11:44:21;99355.33;;;10.32;81.11
56689;BME280;42565;53.342;-1.534;2023-02-20T11:47:16;99349.84;;;10.61;80.20
56689;BME280;42565;53.342;-1.534;2023-02-20T11:49:44;99346.96;;;10.20;81.77
56689;BME280;42565;53.342;-1.534;2023-02-20T11:52:16;99341.96;;;10.24;80.95
56689;BME280;42565;53.342;-1.534;2023-02-20T11:54:43;99349.49;;;10.86;78.22
56689;BME280;42565;53.342;-1.534;2023-02-20T11:57:21;99336.30;;;11.03;78.54
56689;BME280;42565;53.342;-1.534;2023-02-20T11:59:50;99336.46;;;10.58;78.82
56689;BME280;42565;53.342;-1.534;2023-02-20T12:02:24;99346.17;;;10.64;78.92
56689;BME280;42565;53.342;-1.534;2023-02-20T12:05:03;99335.56;;;10.72;79.14
56689;BME280;42565;53.342;-1.534;2023-02-20T12:07:34;99326.39;;;10.69;79.76
56689;BME280;42565;53.342;-1.534;2023-02-20T12:10:09;99330.54;;;10.24;81.31
56689;BME280;42565;53.342;-1.534;2023-02-20T12:12:40;99330.78;;;10.92;78.29
56689;BME280;42565;53.342;-1.534;2023-02-20T12:15:12;99330.53;;;10.78;79.58
56689;BME280;42565;53.342;-1.534;2023-02-20T12:17:47;99326.59;;;11.08;78.14
56689;BME280;42565;53.342;-1.534;2023-02-20T12:20:20;99316.34;;;11.50;76.91
56689;BME280;42565;53.342;-1.534;2023-02-20T12:22:58;99317.29;;;10.85;79.48
56689;BME280;42565;53.342;-1.534;2023-02-20T12:25:35;99319.55;;;11.11;77.47
56689;BME280;42565;53.342;-1.534;2023-02-20T12:28:14;99319.60;;;11.40;77.80
56689;BME280;42565;53.342;-1.534;2023-02-20T12:30:56;99316.69;;;11.77;75.61
56689;BME280;42565;53.342;-1.534;2023-02-20T12:33:40;99311.83;;;11.38;77.72
56689;BME280;42565;53.342;-1.534;2023-02-20T12:36:25;99310.81;;;11.55;75.96
56689;BME280;42565;53.342;-1.534;2023-02-20T12:38:57;99311.17;;;11.33;77.99
56689;BME280;42565;53.342;-1.534;2023-02-20T12:41:30;99304.55;;;11.36;77.76
56689;BME280;42565;53.342;-1.534;2023-02-20T12:44:17;99307.66;;;11.18;76.87
56689;BME280;42565;53.342;-1.534;2023-02-20T12:46:55;99310.20;;;11.04;77.39
56689;BME280;42565;53.342;-1.534;2023-02-20T12:49:44;99309.10;;;11.07;77.88
56689;BME280;42565;53.342;-1.534;2023-02-20T12:52:36;99305.46;;;10.60;79.50
56689;BME280;42565;53.342;-1.534;2023-02-20T12:55:17;99299.80;;;11.49;76.74
56689;BME280;42565;53.342;-1.534;2023-02-20T12:57:52;99301.32;;;11.10;77.77
56689;BME280;42565;53.342;-1.534;2023-02-20T13:00:31;99300.18;;;11.36;75.67
56689;BME280;42565;53.342;-1.534;2023-02-20T13:03:05;99308.26;;;11.45;75.82
56689;BME280;42565;53.342;-1.534;2023-02-20T13:05:37;99302.65;;;11.46;76.21
56689;BME280;42565;53.342;-1.534;2023-02-20T13:08:10;99301.13;;;11.48;76.11
56689;BME280;42565;53.342;-1.534;2023-02-20T13:10:46;99305.30;;;11.58;75.53
56689;BME280;42565;53.342;-1.534;2023-02-20T13:13:15;99306.28;;;11.75;74.97
56689;BME280;42565;53.342;-1.534;2023-02-20T13:15:49;99306.26;;;11.61;74.94